Time;durP1;ratioP1;P1;durP2;ratioP2;P2;SDS_P1;SDS_P2;PMS_P1;PMS_P2;Temp;Humidity;BMP_temperature;BMP_pressure;BME280_temperature;BME280_humidity;BME280_pressure;Samples;Min_cycle;Max_cycle;Signal;HPM_P1;HPM_P2
2022/06/25 00:00:57;;;;;;;7.07;2.88;;;;;;;;;;5071350;28;20036;-66
2022/06/25 00:03:22;;;;;;;3.47;2.35;;;;;;;;;;5057155;28;20608;-66
2022/06/25 00:05:48;;;;;;;2.70;2.47;;;;;;;;;;5066277;28;20033;-66
2022/06/25 00:08:13;;;;;;;5.90;2.78;;;;;;;;;;5067836;28;20033;-66
2022/06/25 00:10:38;;;;;;;2.72;2.40;;;;;;;;;;5067095;28;20016;-66
2022/06/25 00:13:04;;;;;;;4.38;2.33;;;;;;;;;;5067907;28;20095;-66
2022/06/25 00:15:29;;;;;;;5.90;3.53;;;;;;;;;;5068509;28;20541;-67
2022/06/25 00:17:54;;;;;;;3.35;2.70;;;;;;;;;;5072069;28;20522;-66
2022/06/25 00:20:20;;;;;;;3.40;2.50;;;;;;;;;;5068340;28;20032;-66
2022/06/25 00:22:45;;;;;;;3.60;2.70;;;;;;;;;;5067466;28;20034;-67
2022/06/25 00:25:11;;;;;;;5.63;2.95;;;;;;;;;;5067073;28;20017;-66
2022/06/25 00:27:36;;;;;;;3.33;2.80;;;;;;;;;;5064562;28;20068;-66
2022/06/25 00:30:03;;;;;;;7.20;2.92;;;;;;;;;;5055290;28;20032;-66
2022/06/25 00:32:29;;;;;;;3.08;2.55;;;;;;;;;;5064871;28;20520;-66
2022/06/25 00:34:54;;;;;;;4.32;3.00;;;;;;;;;;5060742;28;20025;-66
2022/06/25 00:37:19;;;;;;;4.13;2.83;;;;;;;;;;5066270;28;20024;-67
2022/06/25 00:39:45;;;;;;;5.63;2.90;;;;;;;;;;5066837;28;20129;-66
2022/06/25 00:42:12;;;;;;;5.78;2.67;;;;;;;;;;5058638;28;20044;-67
2022/06/25 00:44:38;;;;;;;7.10;3.40;;;;;;;;;;5052067;28;20055;-66
2022/06/25 00:47:07;;;;;;;3.10;2.70;;;;;;;;;;5060270;28;20410;-67
2022/06/25 00:49:32;;;;;;;3.67;2.88;;;;;;;;;;5048895;28;20024;-66
2022/06/25 00:52:02;;;;;;;5.72;2.90;;;;;;;;;;5058205;28;20033;-66
2022/06/25 00:54:32;;;;;;;5.68;2.90;;;;;;;;;;5066635;28;20029;-66
2022/06/25 00:56:58;;;;;;;4.57;2.92;;;;;;;;;;5068934;28;20703;-66
2022/06/25 00:59:27;;;;;;;4.35;2.78;;;;;;;;;;5056589;28;20112;-66
2022/06/25 01:01:53;;;;;;;5.35;3.00;;;;;;;;;;5065309;28;20055;-65
2022/06/25 01:04:18;;;;;;;5.28;3.03;;;;;;;;;;5053150;28;20028;-66
2022/06/25 01:06:44;;;;;;;4.35;2.85;;;;;;;;;;5066343;28;20029;-66
2022/06/25 01:09:09;;;;;;;7.45;3.40;;;;;;;;;;5080123;28;20032;-66
2022/06/25 01:11:35;;;;;;;6.05;2.88;;;;;;;;;;5067084;28;20028;-66
2022/06/25 01:14:06;;;;;;;6.43;3.00;;;;;;;;;;5065082;28;20024;-66
2022/06/25 01:16:31;;;;;;;6.03;3.10;;;;;;;;;;5067476;28;20031;-65
2022/06/25 01:18:57;;;;;;;3.95;2.88;;;;;;;;;;5065697;28;20028;-66
2022/06/25 01:21:22;;;;;;;6.13;3.05;;;;;;;;;;5052136;28;20035;-66
2022/06/25 01:23:47;;;;;;;4.70;3.10;;;;;;;;;;5061199;28;20040;-66
2022/06/25 01:26:13;;;;;;;6.43;3.30;;;;;;;;;;5071378;28;20025;-66
2022/06/25 01:28:38;;;;;;;4.65;3.08;;;;;;;;;;5066135;28;20020;-66
2022/06/25 01:31:03;;;;;;;4.93;3.55;;;;;;;;;;5065879;28;20083;-66
2022/06/25 01:33:29;;;;;;;3.50;2.72;;;;;;;;;;5067529;28;20028;-66
2022/06/25 01:35:54;;;;;;;4.85;3.00;;;;;;;;;;5068053;28;20036;-66
2022/06/25 01:38:20;;;;;;;6.13;3.38;;;;;;;;;;5067546;28;20028;-66
2022/06/25 01:40:45;;;;;;;4.95;3.20;;;;;;;;;;5087323;28;20046;-67
2022/06/25 01:43:11;;;;;;;5.38;2.85;;;;;;;;;;5088193;28;20036;-66
2022/06/25 01:45:38;;;;;;;8.02;3.40;;;;;;;;;;5067885;28;20029;-66
2022/06/25 01:48:05;;;;;;;4.30;3.00;;;;;;;;;;5066094;28;20029;-67
2022/06/25 01:50:32;;;;;;;5.25;3.00;;;;;;;;;;5065449;28;20033;-66
2022/06/25 01:52:57;;;;;;;4.00;2.90;;;;;;;;;;5065750;28;20513;-66
2022/06/25 01:55:23;;;;;;;5.65;3.05;;;;;;;;;;5065725;28;20024;-67
2022/06/25 01:57:49;;;;;;;5.50;2.90;;;;;;;;;;5066821;28;20093;-66
2022/06/25 02:00:19;;;;;;;4.70;3.10;;;;;;;;;;5065139;28;20454;-66
2022/06/25 02:02:45;;;;;;;6.90;2.97;;;;;;;;;;5065862;28;20116;-66
2022/06/25 02:05:12;;;;;;;4.50;2.90;;;;;;;;;;5064493;28;20134;-66
2022/06/25 02:07:38;;;;;;;3.03;2.72;;;;;;;;;;5071889;28;20416;-66
2022/06/25 02:10:04;;;;;;;4.57;2.42;;;;;;;;;;5068115;28;20009;-66
2022/06/25 02:12:29;;;;;;;3.88;2.58;;;;;;;;;;5065078;28;20025;-66
2022/06/25 02:14:55;;;;;;;6.93;2.58;;;;;;;;;;5066605;28;20047;-67
2022/06/25 02:17:20;;;;;;;2.72;2.40;;;;;;;;;;5065419;28;20460;-66
2022/06/25 02:19:46;;;;;;;3.45;2.40;;;;;;;;;;5066166;28;20031;-67
2022/06/25 02:22:14;;;;;;;6.07;2.55;;;;;;;;;;5069158;28;20009;-67
2022/06/25 02:24:41;;;;;;;4.70;2.63;;;;;;;;;;5068652;28;20509;-66
2022/06/25 02:27:07;;;;;;;4.25;2.30;;;;;;;;;;5067170;28;20040;-66
2022/06/25 02:29:32;;;;;;;4.68;2.60;;;;;;;;;;5065279;28;20062;-66
2022/06/25 02:31:59;;;;;;;5.22;2.25;;;;;;;;;;5066053;28;20370;-67
2022/06/25 02:34:24;;;;;;;7.72;2.53;;;;;;;;;;5063436;28;20470;-67
2022/06/25 02:36:50;;;;;;;4.57;2.30;;;;;;;;;;5066850;28;20037;-66
2022/06/25 02:39:17;;;;;;;2.92;2.17;;;;;;;;;;5064564;28;20032;-66
2022/06/25 02:41:42;;;;;;;4.47;2.22;;;;;;;;;;5065165;28;20028;-67
2022/06/25 02:44:08;;;;;;;3.97;2.10;;;;;;;;;;5064774;28;20058;-67
2022/06/25 02:46:33;;;;;;;4.40;2.42;;;;;;;;;;5066889;28;20074;-67
2022/06/25 02:48:58;;;;;;;3.10;2.17;;;;;;;;;;5064191;28;20036;-66
2022/06/25 02:51:24;;;;;;;4.55;2.30;;;;;;;;;;5077840;28;20037;-66
2022/06/25 02:53:49;;;;;;;5.80;2.50;;;;;;;;;;5064808;28;20033;-66
2022/06/25 02:59:02;;;;;;;3.33;2.20;;;;;;;;;;5065039;28;20163;-66
2022/06/25 03:01:29;;;;;;;3.15;2.22;;;;;;;;;;5064773;28;20116;-66
2022/06/25 03:03:55;;;;;;;5.25;2.80;;;;;;;;;;5058199;28;20040;-66
2022/06/25 03:06:21;;;;;;;5.55;2.53;;;;;;;;;;5067159;28;20661;-66
2022/06/25 03:08:47;;;;;;;3.28;2.20;;;;;;;;;;5071807;28;20041;-66
2022/06/25 03:11:13;;;;;;;3.92;2.25;;;;;;;;;;5068659;28;20043;-66
2022/06/25 03:13:39;;;;;;;3.45;2.25;;;;;;;;;;5067653;28;20529;-66
2022/06/25 03:16:06;;;;;;;4.75;2.50;;;;;;;;;;5066522;28;20027;-66
2022/06/25 03:18:32;;;;;;;3.45;2.00;;;;;;;;;;5064447;28;20025;-66
2022/06/25 03:20:57;;;;;;;4.88;2.33;;;;;;;;;;5067223;28;20039;-66
2022/06/25 03:23:22;;;;;;;4.28;2.40;;;;;;;;;;5066782;28;20041;-66
2022/06/25 03:25:48;;;;;;;4.57;2.22;;;;;;;;;;5068434;28;20035;-66
2022/06/25 03:28:14;;;;;;;4.05;2.42;;;;;;;;;;5068866;28;21529;-66
2022/06/25 03:30:39;;;;;;;4.47;2.42;;;;;;;;;;5061104;28;20106;-66
2022/06/25 03:33:04;;;;;;;5.00;2.30;;;;;;;;;;5068509;28;20044;-66
2022/06/25 03:35:30;;;;;;;3.63;2.20;;;;;;;;;;5068297;28;20635;-66
2022/06/25 03:37:56;;;;;;;5.95;2.50;;;;;;;;;;5067865;28;20063;-66
2022/06/25 03:40:21;;;;;;;2.22;1.95;;;;;;;;;;5064947;28;20052;-66
2022/06/25 03:42:46;;;;;;;3.58;2.35;;;;;;;;;;5067789;28;20052;-66
2022/06/25 03:45:12;;;;;;;3.40;2.42;;;;;;;;;;5067940;28;20044;-66
2022/06/25 03:47:38;;;;;;;3.92;2.10;;;;;;;;;;5067800;28;20056;-66
2022/06/25 03:50:03;;;;;;;4.82;2.00;;;;;;;;;;5068944;28;20151;-66
2022/06/25 03:52:29;;;;;;;5.80;2.13;;;;;;;;;;5068316;28;20623;-66
2022/06/25 03:54:54;;;;;;;3.78;2.30;;;;;;;;;;5067052;28;20039;-66
2022/06/25 03:57:20;;;;;;;4.78;2.10;;;;;;;;;;5067812;28;20039;-66
2022/06/25 03:59:45;;;;;;;4.10;2.30;;;;;;;;;;5071151;28;20039;-66
2022/06/25 04:02:11;;;;;;;3.88;2.08;;;;;;;;;;5068919;28;20029;-66
2022/06/25 04:04:36;;;;;;;2.75;2.10;;;;;;;;;;5063575;28;20024;-66
2022/06/25 04:07:02;;;;;;;5.50;2.20;;;;;;;;;;5065432;28;20024;-67
2022/06/25 04:09:27;;;;;;;2.90;2.28;;;;;;;;;;5066966;28;20040;-66
2022/06/25 04:11:52;;;;;;;4.20;1.98;;;;;;;;;;5060497;28;20052;-66
2022/06/25 04:14:18;;;;;;;7.93;2.20;;;;;;;;;;5068809;28;20039;-67
2022/06/25 04:16:44;;;;;;;3.00;1.95;;;;;;;;;;5065079;28;20024;-66
2022/06/25 04:19:09;;;;;;;2.85;2.10;;;;;;;;;;5066728;28;20603;-67
2022/06/25 04:21:35;;;;;;;3.38;2.10;;;;;;;;;;5061942;28;20083;-66
2022/06/25 04:24:00;;;;;;;3.58;2.05;;;;;;;;;;5064346;28;20114;-66
2022/06/25 04:26:26;;;;;;;3.53;1.90;;;;;;;;;;5067715;28;20056;-66
2022/06/25 04:29:03;;;;;;;3.63;2.20;;;;;;;;;;5070957;28;20036;-66
2022/06/25 04:31:30;;;;;;;5.68;1.77;;;;;;;;;;5062226;28;20028;-66
2022/06/25 04:33:55;;;;;;;5.47;1.98;;;;;;;;;;5066939;28;20036;-67
2022/06/25 04:36:21;;;;;;;4.40;1.95;;;;;;;;;;5066305;28;20489;-66
2022/06/25 04:38:46;;;;;;;4.05;1.83;;;;;;;;;;5064690;28;20029;-66
2022/06/25 04:41:12;;;;;;;4.65;1.90;;;;;;;;;;5058118;28;20055;-66
2022/06/25 04:43:37;;;;;;;2.38;1.70;;;;;;;;;;5071079;28;20517;-66
2022/06/25 04:46:03;;;;;;;2.28;1.70;;;;;;;;;;5066907;28;20056;-66
2022/06/25 04:48:28;;;;;;;2.80;1.95;;;;;;;;;;5067755;28;20085;-66
2022/06/25 04:50:54;;;;;;;3.63;1.88;;;;;;;;;;5065696;28;20063;-66
2022/06/25 04:53:19;;;;;;;3.05;1.85;;;;;;;;;;5065402;28;20044;-66
2022/06/25 04:55:45;;;;;;;3.30;2.10;;;;;;;;;;5066801;28;20035;-66
2022/06/25 04:58:10;;;;;;;3.55;1.90;;;;;;;;;;5073416;28;20027;-66
2022/06/25 05:00:35;;;;;;;4.43;2.13;;;;;;;;;;5070052;28;20111;-66
2022/06/25 05:03:01;;;;;;;4.38;1.77;;;;;;;;;;5060747;28;20037;-67
2022/06/25 05:05:26;;;;;;;3.42;1.75;;;;;;;;;;5080330;28;20460;-67
2022/06/25 05:07:51;;;;;;;5.53;2.40;;;;;;;;;;5059090;28;20567;-66
2022/06/25 05:10:17;;;;;;;3.70;2.10;;;;;;;;;;5066480;28;20110;-66
2022/06/25 05:15:26;;;;;;;5.80;2.25;;;;;;;;;;5066860;28;20082;-66
2022/06/25 05:17:51;;;;;;;6.60;2.35;;;;;;;;;;5066844;28;20047;-66
2022/06/25 05:20:17;;;;;;;4.45;2.00;;;;;;;;;;5067177;28;20028;-67
2022/06/25 05:22:42;;;;;;;4.75;1.98;;;;;;;;;;5063069;28;20028;-66
2022/06/25 05:25:08;;;;;;;5.28;2.17;;;;;;;;;;5067657;28;20027;-66
2022/06/25 05:27:33;;;;;;;4.88;2.22;;;;;;;;;;5066319;28;20033;-66
2022/06/25 05:29:59;;;;;;;5.38;2.20;;;;;;;;;;5066704;28;20036;-66
2022/06/25 05:32:24;;;;;;;4.05;2.15;;;;;;;;;;5067027;28;20028;-66
2022/06/25 05:34:49;;;;;;;5.88;2.20;;;;;;;;;;5066539;28;20028;-66
2022/06/25 05:37:15;;;;;;;3.00;1.88;;;;;;;;;;5068702;28;20036;-67
2022/06/25 05:39:41;;;;;;;3.47;1.95;;;;;;;;;;5081883;28;20032;-66
2022/06/25 05:42:06;;;;;;;4.40;2.00;;;;;;;;;;5086944;28;20101;-66
2022/06/25 05:44:32;;;;;;;4.90;2.00;;;;;;;;;;5080391;28;20036;-66
2022/06/25 05:46:57;;;;;;;3.20;2.13;;;;;;;;;;5067048;28;20037;-66
2022/06/25 05:49:22;;;;;;;2.92;2.17;;;;;;;;;;5066662;28;20055;-66
2022/06/25 05:51:48;;;;;;;4.28;2.20;;;;;;;;;;5066398;28;20036;-66
2022/06/25 05:54:14;;;;;;;5.05;2.20;;;;;;;;;;5066132;28;20124;-67
2022/06/25 05:56:39;;;;;;;9.27;2.00;;;;;;;;;;5077393;28;20066;-66
2022/06/25 05:59:04;;;;;;;3.17;2.00;;;;;;;;;;5065148;28;20101;-66
2022/06/25 06:01:30;;;;;;;5.35;2.50;;;;;;;;;;5067600;28;20032;-67
2022/06/25 06:03:55;;;;;;;5.53;2.35;;;;;;;;;;5064703;28;20040;-67
2022/06/25 06:06:21;;;;;;;8.07;2.50;;;;;;;;;;5067118;28;20040;-67
2022/06/25 06:08:46;;;;;;;3.97;1.98;;;;;;;;;;5064982;28;20417;-67
2022/06/25 06:11:11;;;;;;;4.68;2.10;;;;;;;;;;5065841;28;20494;-67
2022/06/25 06:13:37;;;;;;;3.20;2.10;;;;;;;;;;5066665;28;20051;-66
2022/06/25 06:16:02;;;;;;;5.10;2.20;;;;;;;;;;5065920;28;20116;-67
2022/06/25 06:18:27;;;;;;;2.97;1.98;;;;;;;;;;5066044;28;20032;-67
2022/06/25 06:20:53;;;;;;;4.63;1.92;;;;;;;;;;5066169;28;20059;-66
2022/06/25 06:23:18;;;;;;;6.00;1.92;;;;;;;;;;5065492;28;20043;-66
2022/06/25 06:25:43;;;;;;;3.95;1.90;;;;;;;;;;5065294;28;20451;-66
2022/06/25 06:28:09;;;;;;;5.18;1.90;;;;;;;;;;5065672;28;20485;-66
2022/06/25 06:30:34;;;;;;;5.93;2.10;;;;;;;;;;5066243;28;20029;-67
2022/06/25 06:32:59;;;;;;;2.80;1.77;;;;;;;;;;5065470;28;20038;-67
2022/06/25 06:35:25;;;;;;;2.83;2.00;;;;;;;;;;5066404;28;20124;-66
2022/06/25 06:37:50;;;;;;;4.03;1.95;;;;;;;;;;5064343;28;20025;-66
2022/06/25 06:40:15;;;;;;;4.00;1.90;;;;;;;;;;5071296;28;20032;-67
2022/06/25 06:42:41;;;;;;;3.15;1.63;;;;;;;;;;5068146;28;20074;-66
2022/06/25 06:45:07;;;;;;;4.85;2.53;;;;;;;;;;5060583;28;20127;-67
2022/06/25 06:47:33;;;;;;;5.25;2.05;;;;;;;;;;5069001;28;20116;-66
2022/06/25 06:49:58;;;;;;;3.75;1.90;;;;;;;;;;5065028;28;20132;-66
2022/06/25 06:52:26;;;;;;;4.20;2.00;;;;;;;;;;5067055;28;20112;-66
2022/06/25 06:54:51;;;;;;;2.97;2.15;;;;;;;;;;5058545;28;20036;-66
2022/06/25 06:57:17;;;;;;;6.55;2.20;;;;;;;;;;5064181;28;20033;-67
2022/06/25 06:59:42;;;;;;;4.43;2.00;;;;;;;;;;5067811;28;20065;-67
2022/06/25 07:02:07;;;;;;;4.82;2.53;;;;;;;;;;5061851;28;20113;-67
2022/06/25 07:04:33;;;;;;;6.35;2.00;;;;;;;;;;5069034;28;20424;-66
2022/06/25 07:06:58;;;;;;;4.65;2.13;;;;;;;;;;5068786;28;20048;-66
2022/06/25 07:09:23;;;;;;;4.28;2.10;;;;;;;;;;5065670;28;20122;-67
2022/06/25 07:11:49;;;;;;;6.57;2.35;;;;;;;;;;5069832;28;20038;-67
2022/06/25 07:14:14;;;;;;;5.15;2.30;;;;;;;;;;5063414;28;20036;-66
2022/06/25 07:16:40;;;;;;;6.10;2.28;;;;;;;;;;5063426;28;20063;-66
2022/06/25 07:19:05;;;;;;;4.00;2.22;;;;;;;;;;5065134;28;20024;-67
2022/06/25 07:21:30;;;;;;;4.28;2.08;;;;;;;;;;5067799;28;20087;-67
2022/06/25 07:23:56;;;;;;;5.50;2.60;;;;;;;;;;5069177;28;20025;-66
2022/06/25 07:26:22;;;;;;;4.15;2.35;;;;;;;;;;5069724;28;20055;-67
2022/06/25 07:28:48;;;;;;;4.82;2.50;;;;;;;;;;5068237;28;20102;-66
2022/06/25 07:31:14;;;;;;;3.47;2.42;;;;;;;;;;5058044;28;20020;-67
2022/06/25 07:33:39;;;;;;;4.38;2.22;;;;;;;;;;5048714;28;20112;-67
2022/06/25 07:36:06;;;;;;;6.65;2.22;;;;;;;;;;5065169;28;20032;-67
2022/06/25 07:38:33;;;;;;;4.47;2.10;;;;;;;;;;5070989;28;20040;-67
2022/06/25 07:40:59;;;;;;;3.22;1.80;;;;;;;;;;5067541;28;20033;-66
2022/06/25 07:43:27;;;;;;;5.10;1.98;;;;;;;;;;5067371;28;20476;-67
2022/06/25 07:45:53;;;;;;;4.80;2.10;;;;;;;;;;5064793;28;20037;-67
2022/06/25 07:48:18;;;;;;;4.47;1.85;;;;;;;;;;5073738;28;20032;-68
2022/06/25 07:53:27;;;;;;;7.05;2.30;;;;;;;;;;5067682;28;20072;-67
2022/06/25 07:55:53;;;;;;;10.43;6.95;;;;;;;;;;5058417;28;20075;-67
2022/06/25 07:58:18;;;;;;;4.38;2.00;;;;;;;;;;5068859;28;20413;-67
2022/06/25 08:00:43;;;;;;;2.92;1.92;;;;;;;;;;5067453;28;20028;-67
2022/06/25 08:03:09;;;;;;;5.38;2.15;;;;;;;;;;5056626;28;20044;-67
2022/06/25 08:05:34;;;;;;;4.22;2.10;;;;;;;;;;5066596;28;20036;-67
2022/06/25 08:08:00;;;;;;;4.30;2.60;;;;;;;;;;5069565;28;20032;-67
2022/06/25 08:10:25;;;;;;;4.35;3.03;;;;;;;;;;5069210;28;20024;-67
2022/06/25 08:12:51;;;;;;;5.22;2.50;;;;;;;;;;5068666;28;20032;-68
2022/06/25 08:15:19;;;;;;;4.35;2.47;;;;;;;;;;5068004;28;20514;-67
2022/06/25 08:17:45;;;;;;;4.43;2.58;;;;;;;;;;5070641;28;20036;-67
2022/06/25 08:20:11;;;;;;;6.57;2.40;;;;;;;;;;5070059;28;20028;-67
2022/06/25 08:22:36;;;;;;;7.05;2.80;;;;;;;;;;5067876;28;20443;-67
2022/06/25 08:25:02;;;;;;;5.68;2.80;;;;;;;;;;5072566;28;20193;-67
2022/06/25 08:27:28;;;;;;;5.05;2.40;;;;;;;;;;5065165;28;20025;-67
2022/06/25 08:29:53;;;;;;;5.05;3.45;;;;;;;;;;5067976;28;20056;-68
2022/06/25 08:32:19;;;;;;;5.35;3.45;;;;;;;;;;5067338;28;20625;-67
2022/06/25 08:34:44;;;;;;;6.53;3.05;;;;;;;;;;5064841;28;20016;-67
2022/06/25 08:37:09;;;;;;;6.30;3.30;;;;;;;;;;5067105;28;20029;-68
2022/06/25 08:39:35;;;;;;;6.75;3.53;;;;;;;;;;5065546;28;20145;-68
2022/06/25 08:42:01;;;;;;;5.75;3.60;;;;;;;;;;5066397;28;20574;-67
2022/06/25 08:44:29;;;;;;;7.60;3.72;;;;;;;;;;5062235;28;20514;-67
2022/06/25 08:46:55;;;;;;;4.53;3.85;;;;;;;;;;5059867;28;20035;-67
2022/06/25 08:49:21;;;;;;;8.45;3.63;;;;;;;;;;5067435;28;20081;-67
2022/06/25 08:51:47;;;;;;;5.50;3.20;;;;;;;;;;5067651;28;20029;-67
2022/06/25 08:54:15;;;;;;;5.72;3.05;;;;;;;;;;5067704;28;20040;-67
2022/06/25 08:56:41;;;;;;;8.07;3.42;;;;;;;;;;5067130;28;20024;-67
2022/06/25 08:59:07;;;;;;;6.07;3.47;;;;;;;;;;5061639;28;20029;-67
2022/06/25 09:01:33;;;;;;;6.20;3.20;;;;;;;;;;5050406;28;20055;-67
2022/06/25 09:03:58;;;;;;;8.02;3.30;;;;;;;;;;5068463;28;20396;-68
2022/06/25 09:06:23;;;;;;;8.18;3.15;;;;;;;;;;5066649;28;20468;-67
2022/06/25 09:09:09;;;;;;;7.57;3.15;;;;;;;;;;5060839;28;20036;-67
2022/06/25 09:11:57;;;;;;;5.75;3.10;;;;;;;;;;5058147;28;20572;-67
2022/06/25 09:14:26;;;;;;;4.70;3.28;;;;;;;;;;5059458;28;20174;-68
2022/06/25 09:17:06;;;;;;;6.28;3.20;;;;;;;;;;5055724;28;20670;-67
2022/06/25 09:19:34;;;;;;;5.03;3.28;;;;;;;;;;5066420;28;20099;-67
2022/06/25 09:22:02;;;;;;;6.10;3.70;;;;;;;;;;5064634;28;20025;-67
2022/06/25 09:24:47;;;;;;;8.50;3.33;;;;;;;;;;5065570;28;20115;-68
2022/06/25 09:27:20;;;;;;;6.00;3.20;;;;;;;;;;5066581;28;20074;-68
2022/06/25 09:29:48;;;;;;;4.13;2.80;;;;;;;;;;5065985;28;20616;-68
2022/06/25 09:32:15;;;;;;;5.03;3.10;;;;;;;;;;5064644;28;20438;-67
2022/06/25 09:34:40;;;;;;;4.03;2.60;;;;;;;;;;5062741;28;20074;-67
2022/06/25 09:37:26;;;;;;;5.65;2.50;;;;;;;;;;5067332;28;20047;-67
2022/06/25 09:39:53;;;;;;;4.68;2.50;;;;;;;;;;5062902;28;20037;-68
2022/06/25 09:42:29;;;;;;;3.63;2.65;;;;;;;;;;5063736;28;20044;-67
2022/06/25 09:45:06;;;;;;;4.00;2.25;;;;;;;;;;5058640;28;20947;-68
2022/06/25 09:47:39;;;;;;;6.18;2.38;;;;;;;;;;5063441;28;20032;-67
2022/06/25 09:50:12;;;;;;;3.67;2.10;;;;;;;;;;5066046;28;20032;-67
2022/06/25 09:52:47;;;;;;;3.77;2.17;;;;;;;;;;5063327;28;20043;-67
2022/06/25 09:55:13;;;;;;;4.72;2.40;;;;;;;;;;5065759;28;20013;-68
2022/06/25 09:57:38;;;;;;;4.20;2.20;;;;;;;;;;5066175;28;20035;-68
2022/06/25 10:00:05;;;;;;;3.33;2.50;;;;;;;;;;5065681;28;20024;-67
2022/06/25 10:02:30;;;;;;;5.53;2.30;;;;;;;;;;5065678;28;20521;-68
2022/06/25 10:05:01;;;;;;;3.97;2.17;;;;;;;;;;5065546;28;20044;-68
2022/06/25 10:07:59;;;;;;;4.05;2.33;;;;;;;;;;5062860;28;20105;-67
2022/06/25 10:10:19;;;;;;;5.05;2.30;;;;;;;;;;5065077;28;20105;-67
2022/06/25 10:12:46;;;;;;;3.42;2.00;;;;;;;;;;5066551;28;20040;-68
2022/06/25 10:15:18;;;;;;;3.47;2.30;;;;;;;;;;5064617;28;20549;-67
2022/06/25 10:17:51;;;;;;;2.30;1.80;;;;;;;;;;5069869;28;20035;-68
2022/06/25 10:20:18;;;;;;;4.03;2.00;;;;;;;;;;5057875;28;20036;-67
2022/06/25 10:22:46;;;;;;;3.28;2.00;;;;;;;;;;5067807;28;20021;-68
2022/06/25 10:25:15;;;;;;;3.92;2.00;;;;;;;;;;5075273;28;20016;-68
2022/06/25 10:27:46;;;;;;;5.05;2.47;;;;;;;;;;5069294;28;20032;-68
2022/06/25 10:30:14;;;;;;;3.10;2.10;;;;;;;;;;5069910;28;20039;-68
2022/06/25 10:32:51;;;;;;;5.22;2.63;;;;;;;;;;5069289;28;20054;-68
2022/06/25 10:35:27;;;;;;;3.55;2.40;;;;;;;;;;5060266;28;20050;-69
2022/06/25 10:38:00;;;;;;;3.00;2.17;;;;;;;;;;5065943;28;20095;-67
2022/06/25 10:40:26;;;;;;;3.97;2.40;;;;;;;;;;5058677;28;20056;-68
2022/06/25 10:43:00;;;;;;;4.18;2.10;;;;;;;;;;5058166;28;20770;-68
2022/06/25 10:45:26;;;;;;;3.90;2.40;;;;;;;;;;5067919;28;20045;-68
2022/06/25 10:47:58;;;;;;;5.15;2.60;;;;;;;;;;5069580;28;20044;-68
2022/06/25 10:50:25;;;;;;;7.45;2.38;;;;;;;;;;5068553;28;20036;-68
2022/06/25 10:53:02;;;;;;;3.85;2.45;;;;;;;;;;5068732;28;20036;-68
2022/06/25 10:55:47;;;;;;;3.67;2.33;;;;;;;;;;5070905;28;20147;-68
2022/06/25 10:58:18;;;;;;;3.17;2.35;;;;;;;;;;5070067;28;20040;-68
2022/06/25 11:00:47;;;;;;;2.80;1.98;;;;;;;;;;5068655;28;20063;-69
2022/06/25 11:03:14;;;;;;;5.93;2.80;;;;;;;;;;5077287;28;20063;-68
2022/06/25 11:05:41;;;;;;;6.85;2.45;;;;;;;;;;5073158;28;20032;-68
2022/06/25 11:08:07;;;;;;;4.88;2.95;;;;;;;;;;5059899;28;20075;-69
2022/06/25 11:10:37;;;;;;;2.70;2.15;;;;;;;;;;5061751;28;20052;-68
2022/06/25 11:13:03;;;;;;;3.80;2.47;;;;;;;;;;5072446;28;20024;-69
2022/06/25 11:15:40;;;;;;;3.50;2.40;;;;;;;;;;5067935;28;20102;-69
2022/06/25 11:18:13;;;;;;;3.30;2.55;;;;;;;;;;5063056;28;20572;-69
2022/06/25 11:20:40;;;;;;;6.03;2.55;;;;;;;;;;5065622;28;20040;-68
2022/06/25 11:23:10;;;;;;;6.25;2.60;;;;;;;;;;5067150;28;20063;-68
2022/06/25 11:28:49;;;;;;;3.72;2.55;;;;;;;;;;5066568;28;20040;-68
2022/06/25 11:31:15;;;;;;;3.50;2.53;;;;;;;;;;5068352;28;20092;-68
2022/06/25 11:33:43;;;;;;;4.63;2.90;;;;;;;;;;5067376;28;20044;-68
2022/06/25 11:36:12;;;;;;;5.53;3.00;;;;;;;;;;5068313;28;20124;-67
2022/06/25 11:38:39;;;;;;;4.68;2.92;;;;;;;;;;5067032;28;20039;-68
2022/06/25 11:41:04;;;;;;;3.75;2.83;;;;;;;;;;5066472;28;20044;-67
2022/06/25 11:43:29;;;;;;;7.00;2.75;;;;;;;;;;5064440;28;20052;-68
2022/06/25 11:45:56;;;;;;;5.57;2.63;;;;;;;;;;5066325;28;20051;-68
2022/06/25 11:48:26;;;;;;;3.13;2.50;;;;;;;;;;5065509;28;20037;-68
2022/06/25 11:50:59;;;;;;;5.03;2.17;;;;;;;;;;5067374;28;20041;-68
2022/06/25 11:53:24;;;;;;;2.63;2.40;;;;;;;;;;5064364;28;20388;-68
2022/06/25 11:56:00;;;;;;;4.78;1.98;;;;;;;;;;5055967;28;20051;-68
2022/06/25 11:58:27;;;;;;;3.75;2.30;;;;;;;;;;5059300;28;20056;-68
2022/06/25 12:00:57;;;;;;;4.05;2.00;;;;;;;;;;5057641;28;20037;-68
2022/06/25 12:03:24;;;;;;;3.05;1.90;;;;;;;;;;5057205;28;20033;-67
2022/06/25 12:05:50;;;;;;;2.70;1.80;;;;;;;;;;5067539;28;20046;-68
2022/06/25 12:08:16;;;;;;;2.40;1.85;;;;;;;;;;5053347;28;20109;-68
2022/06/25 12:10:42;;;;;;;3.50;2.00;;;;;;;;;;5066031;28;20615;-69
2022/06/25 12:13:08;;;;;;;5.60;2.00;;;;;;;;;;5063220;28;20104;-69
2022/06/25 12:15:35;;;;;;;2.47;2.03;;;;;;;;;;5066697;28;20025;-68
2022/06/25 12:18:05;;;;;;;3.13;2.03;;;;;;;;;;5063235;28;20029;-69
2022/06/25 12:20:30;;;;;;;2.88;2.17;;;;;;;;;;5052676;28;20060;-69
2022/06/25 12:22:57;;;;;;;4.40;2.28;;;;;;;;;;5059941;28;20518;-69
2022/06/25 12:25:30;;;;;;;4.10;1.88;;;;;;;;;;5061220;28;20024;-69
2022/06/25 12:27:57;;;;;;;3.28;1.90;;;;;;;;;;5066938;28;20055;-69
2022/06/25 12:30:30;;;;;;;3.00;1.70;;;;;;;;;;5071619;28;20118;-69
2022/06/25 12:33:14;;;;;;;3.92;1.95;;;;;;;;;;5075754;28;20541;-69
2022/06/25 12:35:42;;;;;;;2.55;1.80;;;;;;;;;;5061184;28;20081;-69
2022/06/25 12:38:10;;;;;;;3.28;1.95;;;;;;;;;;5064164;28;20025;-68
2022/06/25 12:40:43;;;;;;;2.75;1.67;;;;;;;;;;5062891;28;20046;-68
2022/06/25 12:43:10;;;;;;;5.85;2.22;;;;;;;;;;5066795;28;20131;-68
2022/06/25 12:45:37;;;;;;;3.15;1.80;;;;;;;;;;5064292;28;20029;-69
2022/06/25 12:48:03;;;;;;;3.28;2.10;;;;;;;;;;5066756;28;20037;-69
2022/06/25 12:50:30;;;;;;;2.55;1.90;;;;;;;;;;5059045;28;20036;-69
2022/06/25 12:53:09;;;;;;;4.93;2.20;;;;;;;;;;5066081;28;20036;-69
2022/06/25 12:55:34;;;;;;;5.93;2.58;;;;;;;;;;5054545;28;20024;-68
2022/06/25 12:58:08;;;;;;;2.78;1.85;;;;;;;;;;5063326;28;20025;-68
2022/06/25 13:00:37;;;;;;;3.72;1.73;;;;;;;;;;5062689;28;20115;-68
2022/06/25 13:03:03;;;;;;;2.67;1.90;;;;;;;;;;5065599;28;20106;-69
2022/06/25 13:05:28;;;;;;;3.03;2.10;;;;;;;;;;5066017;28;20036;-69
2022/06/25 13:07:54;;;;;;;2.08;1.90;;;;;;;;;;5062853;28;20067;-70
2022/06/25 13:10:21;;;;;;;4.22;2.20;;;;;;;;;;5061089;28;20017;-69
2022/06/25 13:12:50;;;;;;;4.65;2.00;;;;;;;;;;5065956;28;20033;-69
2022/06/25 13:15:15;;;;;;;6.10;1.90;;;;;;;;;;5063588;28;20029;-70
2022/06/25 13:17:41;;;;;;;4.50;2.00;;;;;;;;;;5061245;28;20032;-70
2022/06/25 13:20:07;;;;;;;3.92;2.00;;;;;;;;;;5061858;28;20032;-69
2022/06/25 13:22:32;;;;;;;2.03;1.75;;;;;;;;;;5063423;28;20012;-69
2022/06/25 13:24:59;;;;;;;3.95;2.10;;;;;;;;;;5066020;28;20398;-69
2022/06/25 13:27:24;;;;;;;3.10;1.90;;;;;;;;;;5063228;28;20028;-69
2022/06/25 13:29:49;;;;;;;4.68;2.10;;;;;;;;;;5065060;28;20033;-69
2022/06/25 13:32:16;;;;;;;4.53;1.90;;;;;;;;;;5066730;28;20075;-70
2022/06/25 13:34:46;;;;;;;4.88;1.98;;;;;;;;;;5065463;28;20027;-69
2022/06/25 13:37:12;;;;;;;2.78;1.65;;;;;;;;;;5057862;28;20125;-70
2022/06/25 13:39:37;;;;;;;6.38;2.03;;;;;;;;;;5056368;28;20025;-70
2022/06/25 13:42:03;;;;;;;3.47;2.20;;;;;;;;;;5065234;28;20020;-69
2022/06/25 13:44:28;;;;;;;3.22;2.00;;;;;;;;;;5066454;28;20171;-69
2022/06/25 13:46:53;;;;;;;3.33;2.28;;;;;;;;;;5064581;28;20059;-70
2022/06/25 13:49:19;;;;;;;3.50;2.00;;;;;;;;;;5065086;28;20494;-70
2022/06/25 13:51:47;;;;;;;3.92;2.58;;;;;;;;;;5060954;28;20036;-70
2022/06/25 13:54:12;;;;;;;2.58;1.83;;;;;;;;;;5062431;28;20510;-69
2022/06/25 13:56:38;;;;;;;3.67;2.15;;;;;;;;;;5065835;28;20070;-67
2022/06/25 13:59:03;;;;;;;5.45;1.95;;;;;;;;;;5066244;28;20032;-67
2022/06/25 14:01:29;;;;;;;3.38;2.08;;;;;;;;;;5063720;28;20043;-67
2022/06/25 14:03:54;;;;;;;4.70;2.00;;;;;;;;;;5063376;28;20032;-67
2022/06/25 14:06:20;;;;;;;5.32;2.22;;;;;;;;;;5060596;28;20028;-67
2022/06/25 14:08:45;;;;;;;3.03;2.13;;;;;;;;;;5057924;28;20530;-66
2022/06/25 14:11:12;;;;;;;3.15;2.22;;;;;;;;;;5066258;28;20043;-67
2022/06/25 14:13:38;;;;;;;4.70;2.15;;;;;;;;;;5062481;28;20673;-67
2022/06/25 14:16:04;;;;;;;7.35;2.17;;;;;;;;;;5064114;28;20024;-67
2022/06/25 14:18:29;;;;;;;3.25;2.10;;;;;;;;;;5064111;28;20055;-66
2022/06/25 14:20:55;;;;;;;3.72;1.90;;;;;;;;;;5073184;28;20128;-67
2022/06/25 14:23:21;;;;;;;4.07;2.13;;;;;;;;;;5075791;28;20051;-67
2022/06/25 14:25:47;;;;;;;4.10;2.13;;;;;;;;;;5068196;28;20025;-67
2022/06/25 14:28:12;;;;;;;5.53;2.30;;;;;;;;;;5053584;28;20021;-67
2022/06/25 14:30:38;;;;;;;6.10;2.65;;;;;;;;;;5066131;28;20032;-67
2022/06/25 14:33:05;;;;;;;5.50;2.65;;;;;;;;;;5066941;28;20421;-68
2022/06/25 14:35:30;;;;;;;5.43;2.58;;;;;;;;;;5064528;28;20051;-67
2022/06/25 14:43:25;;;;;;;3.40;1.83;;;;;;;;;;5057054;28;20151;-68
2022/06/25 14:45:51;;;;;;;5.88;1.92;;;;;;;;;;5051078;28;20044;-67
2022/06/25 14:48:17;;;;;;;4.03;2.08;;;;;;;;;;5065477;28;20123;-66
2022/06/25 14:50:43;;;;;;;5.43;1.88;;;;;;;;;;5064605;28;20111;-67
2022/06/25 14:53:09;;;;;;;3.60;1.63;;;;;;;;;;5063088;28;20024;-66
2022/06/25 14:55:34;;;;;;;6.32;1.63;;;;;;;;;;5065530;28;20024;-67
2022/06/25 14:57:59;;;;;;;2.80;1.70;;;;;;;;;;5066038;28;20091;-67